createdAt,value
2018-06-20T00:01:30.452Z,2.20
2018-06-20T00:06:33.757Z,1.90
2018-06-20T00:11:37.360Z,2.20
2018-06-20T00:16:40.670Z,2.20
2018-06-20T00:21:43.676Z,2.20
2018-06-20T00:26:47.174Z,2.10
2018-06-20T00:31:50.668Z,1.75
2018-06-20T00:36:53.752Z,1.85
2018-06-20T00:41:56.752Z,2.20
2018-06-20T00:46:59.836Z,2.08
2018-06-20T00:52:02.884Z,1.90
2018-06-20T00:57:05.980Z,1.90
2018-06-20T01:02:09.198Z,2.05
2018-06-20T01:07:12.769Z,2.30
2018-06-20T01:12:16.150Z,2.10
2018-06-20T01:17:19.483Z,2.30
2018-06-20T01:22:23.077Z,2.17
2018-06-20T01:27:27.069Z,2.25
2018-06-20T01:32:30.103Z,2.20
2018-06-20T01:37:33.835Z,1.98
2018-06-20T01:42:36.893Z,1.90
2018-06-20T01:47:39.866Z,1.90
2018-06-20T01:52:43.052Z,1.80
2018-06-20T01:57:46.171Z,2.25
2018-06-20T02:02:49.268Z,2.00
2018-06-20T02:07:52.292Z,2.10
2018-06-20T02:12:55.953Z,2.10
2018-06-20T02:17:58.976Z,2.10
2018-06-20T02:23:01.981Z,1.70
2018-06-20T02:28:05.133Z,2.12
2018-06-20T02:33:08.710Z,2.27
2018-06-20T02:38:11.892Z,2.08
2018-06-20T02:43:14.923Z,2.02
2018-06-20T02:48:18.773Z,2.10
2018-06-20T02:53:21.725Z,2.17
2018-06-20T02:58:24.964Z,1.75
2018-06-20T03:03:28.781Z,2.10
2018-06-20T03:08:32.512Z,1.95
2018-06-20T03:13:35.482Z,2.20
2018-06-20T03:18:38.577Z,2.22
2018-06-20T03:23:41.748Z,2.15
2018-06-20T03:28:44.835Z,2.25
2018-06-20T03:33:47.837Z,2.05
2018-06-20T03:38:50.843Z,2.25
2018-06-20T03:43:54.442Z,2.10
2018-06-20T03:48:58.527Z,2.30
2018-06-20T03:54:01.888Z,2.17
2018-06-20T03:59:05.004Z,2.20
2018-06-20T04:04:08.283Z,2.33
2018-06-20T04:09:13.339Z,2.35
2018-06-20T04:14:16.627Z,3.12
2018-06-20T04:19:19.695Z,2.45
2018-06-20T04:24:22.779Z,2.50
2018-06-20T04:29:26.467Z,2.67
2018-06-20T04:34:30.102Z,2.52
2018-06-20T04:39:33.166Z,2.58
2018-06-20T04:44:36.300Z,2.75
2018-06-20T04:49:39.435Z,2.98
2018-06-20T04:54:42.451Z,2.75
2018-06-20T04:59:45.565Z,2.80
2018-06-20T05:04:48.863Z,2.52
2018-06-20T05:09:52.588Z,2.67
2018-06-20T05:14:55.527Z,2.85
2018-06-20T05:19:59.184Z,3.10
2018-06-20T05:25:02.178Z,2.90
2018-06-20T05:30:05.704Z,2.74
2018-06-20T05:35:08.752Z,3.00
2018-06-20T05:40:12.059Z,3.17
2018-06-20T05:45:15.166Z,3.03
2018-06-20T05:50:18.258Z,3.30
2018-06-20T05:55:21.513Z,3.10
2018-06-20T06:00:24.572Z,3.35
2018-06-20T06:05:27.541Z,3.70
2018-06-20T06:10:30.685Z,3.62
2018-06-20T06:15:33.742Z,3.45
2018-06-20T06:20:37.776Z,3.77
2018-06-20T06:25:40.775Z,4.03
2018-06-20T06:30:43.907Z,3.83
2018-06-20T06:35:47.100Z,5.90
2018-06-20T06:40:50.090Z,6.75
2018-06-20T06:45:53.261Z,6.42
2018-06-20T06:50:56.374Z,7.00
2018-06-20T06:55:59.342Z,6.80
2018-06-20T07:01:02.548Z,7.03
2018-06-20T07:06:05.755Z,7.40
2018-06-20T07:11:09.065Z,7.10
2018-06-20T07:16:12.152Z,7.42
2018-06-20T07:21:15.259Z,7.45
2018-06-20T07:26:18.878Z,6.65
2018-06-20T07:31:22.594Z,6.50
2018-06-20T07:36:25.654Z,6.22
2018-06-20T07:41:28.560Z,7.03
2018-06-20T07:46:31.563Z,6.70
2018-06-20T07:51:34.528Z,6.50
2018-06-20T07:56:37.503Z,6.83
2018-06-20T08:01:51.512Z,5.90
2018-06-20T08:07:00.053Z,4.87
2018-06-20T08:12:08.463Z,4.78
2018-06-20T08:17:16.960Z,5.15
2018-06-20T08:22:21.116Z,4.95
2018-06-20T08:27:24.442Z,5.22
2018-06-20T08:32:27.523Z,4.90
2018-06-20T08:37:30.515Z,5.37
2018-06-20T08:42:33.594Z,5.17
2018-06-20T08:47:36.895Z,4.97
2018-06-20T08:52:39.888Z,4.85
2018-06-20T08:57:42.880Z,4.85
2018-06-20T09:02:46.555Z,4.60
2018-06-20T09:07:55.101Z,4.33
2018-06-20T09:13:03.636Z,4.47
2018-06-20T09:18:12.112Z,4.47
2018-06-20T09:23:15.101Z,4.08
2018-06-20T09:28:18.085Z,4.87
2018-06-20T09:33:21.055Z,4.17
2018-06-20T09:38:24.097Z,4.12
2018-06-20T09:43:27.540Z,3.92
2018-06-20T09:48:30.695Z,4.62
2018-06-20T09:53:33.704Z,3.90
2018-06-20T09:58:36.729Z,4.00
2018-06-20T10:03:45.719Z,4.30
2018-06-20T10:08:51.420Z,3.95
2018-06-20T10:13:59.251Z,3.92
2018-06-20T10:19:02.284Z,4.42
2018-06-20T10:24:05.399Z,3.85
2018-06-20T10:29:08.371Z,4.40
2018-06-20T10:34:11.807Z,3.72
2018-06-20T10:39:14.799Z,3.50
2018-06-20T10:44:17.998Z,4.20
2018-06-20T10:49:21.372Z,16.85
2018-06-20T10:54:25.830Z,12.55
2018-06-20T10:59:34.339Z,13.50
2018-06-20T11:04:42.912Z,16.32
2018-06-20T11:09:51.324Z,13.62
2018-06-20T11:14:54.612Z,13.00
2018-06-20T11:20:02.257Z,11.85
2018-06-20T11:25:05.764Z,11.00
2018-06-20T11:30:09.142Z,10.78
2018-06-20T11:35:12.168Z,13.25
2018-06-20T11:40:16.029Z,12.68
2018-06-20T11:45:19.424Z,13.53
2018-06-20T11:50:22.821Z,12.68
2018-06-20T11:55:31.076Z,11.73
2018-06-20T12:00:39.477Z,11.63
2018-06-20T12:05:47.848Z,11.00
2018-06-20T12:10:56.554Z,10.48
2018-06-20T12:16:05.336Z,10.95
2018-06-20T12:21:13.790Z,10.03
2018-06-20T12:26:22.329Z,10.53
2018-06-20T12:31:30.806Z,10.98
2018-06-20T12:36:39.132Z,10.45
2018-06-20T12:41:48.132Z,10.58
2018-06-20T12:47:10.203Z,10.70
2018-06-20T12:52:15.493Z,8.83
2018-06-20T12:57:18.571Z,8.65
2018-06-20T13:02:21.632Z,9.48
2018-06-20T13:07:25.369Z,9.48
2018-06-20T13:12:28.577Z,8.95
2018-06-20T13:17:32.777Z,8.85
2018-06-20T13:22:36.104Z,8.68
2018-06-20T13:27:46.492Z,8.93
2018-06-20T13:32:54.996Z,9.13
2018-06-20T13:38:03.477Z,8.50
2018-06-20T13:43:11.762Z,7.95
2018-06-20T13:48:20.236Z,7.97
2018-06-20T13:53:23.443Z,8.65
2018-06-20T13:58:26.423Z,8.13
2018-06-20T14:03:29.412Z,7.53
2018-06-20T14:08:32.885Z,7.53
2018-06-20T14:13:35.895Z,7.15
2018-06-20T14:18:39.525Z,7.55
2018-06-20T14:23:42.596Z,7.45
2018-06-20T14:28:46.703Z,7.15
2018-06-20T14:36:02.831Z,6.83
2018-06-20T14:41:11.264Z,7.33
2018-06-20T14:46:15.944Z,7.25
2018-06-20T14:51:19.036Z,6.50
2018-06-20T14:56:22.032Z,5.70
2018-06-20T15:01:25.321Z,6.00
2018-06-20T15:06:28.355Z,6.42
2018-06-20T15:11:31.553Z,6.47
2018-06-20T15:16:40.081Z,6.25
2018-06-20T15:21:43.072Z,5.97
2018-06-20T15:27:53.862Z,5.83
2018-06-20T15:33:02.229Z,6.03
2018-06-20T15:38:10.926Z,5.83
2018-06-20T15:43:14.558Z,6.22
2018-06-20T15:48:17.679Z,5.35
2018-06-20T15:53:20.663Z,5.37
2018-06-20T15:58:24.060Z,5.80
2018-06-20T16:03:27.101Z,4.97
2018-06-20T16:08:30.487Z,5.67
2018-06-20T16:13:33.441Z,5.58
2018-06-20T16:18:36.480Z,4.72
2018-06-20T16:23:44.863Z,5.22
2018-06-20T16:28:53.192Z,5.25
2018-06-20T16:33:56.916Z,5.30
2018-06-20T16:39:00.684Z,4.53
2018-06-20T16:44:04.088Z,4.58
2018-06-20T16:49:07.175Z,4.70
2018-06-20T16:54:10.132Z,4.75
2018-06-20T16:59:13.518Z,4.62
2018-06-20T17:04:16.635Z,4.97
2018-06-20T17:09:19.968Z,4.10
2018-06-20T17:14:28.298Z,4.03
2018-06-20T17:19:36.604Z,3.67
2018-06-20T17:24:44.966Z,3.75
2018-06-20T17:29:47.946Z,3.70
2018-06-20T17:34:50.992Z,3.70
2018-06-20T17:39:54.356Z,3.20
2018-06-20T17:44:57.443Z,3.52
2018-06-20T17:50:00.397Z,3.47
2018-06-20T17:55:03.722Z,3.55
2018-06-20T18:00:06.941Z,3.20
2018-06-20T18:07:19.463Z,3.22
2018-06-20T18:12:28.305Z,3.10
2018-06-20T18:17:31.121Z,3.05
2018-06-20T18:22:34.481Z,3.30
2018-06-20T18:27:37.431Z,3.05
2018-06-20T18:32:40.719Z,3.00
2018-06-20T18:37:43.782Z,3.08
2018-06-20T18:42:47.553Z,3.02
2018-06-20T18:47:55.939Z,3.55
2018-06-20T18:52:59.216Z,3.55
2018-06-20T18:58:07.723Z,3.17
2018-06-20T19:03:16.641Z,3.20
2018-06-20T19:08:25.052Z,2.80
2018-06-20T19:13:28.344Z,3.40
2018-06-20T19:18:31.305Z,3.02
2018-06-20T19:23:35.375Z,3.17
2018-06-20T19:28:38.532Z,2.98
2018-06-20T19:33:41.619Z,2.80
2018-06-20T19:38:44.993Z,2.98
2018-06-20T19:43:53.660Z,3.12
2018-06-20T19:48:56.660Z,3.27
2018-06-20T19:54:00.246Z,3.60
2018-06-20T19:59:03.764Z,2.90
2018-06-20T20:04:06.796Z,3.30
2018-06-20T20:09:10.429Z,3.62
2018-06-20T20:14:13.472Z,3.62
2018-06-20T20:19:16.546Z,3.70
2018-06-20T20:24:20.021Z,3.40
2018-06-20T20:29:23.372Z,3.87
2018-06-20T20:34:26.395Z,3.55
2018-06-20T20:39:29.565Z,3.60
2018-06-20T20:44:32.875Z,3.65
2018-06-20T20:49:36.010Z,3.83
2018-06-20T20:54:39.629Z,3.47
2018-06-20T20:59:43.055Z,3.70
2018-06-20T21:04:46.320Z,3.47
2018-06-20T21:09:49.432Z,4.10
2018-06-20T21:14:52.465Z,3.90
2018-06-20T21:19:55.645Z,3.98
2018-06-20T21:24:58.758Z,3.70
2018-06-20T21:30:02.006Z,3.62
2018-06-20T21:35:05.796Z,3.80
2018-06-20T21:40:11.218Z,3.25
2018-06-20T21:45:14.239Z,3.67
2018-06-20T21:50:17.299Z,3.47
2018-06-20T21:55:21.155Z,3.87
2018-06-20T22:00:26.261Z,3.70
2018-06-20T22:05:29.574Z,3.40
2018-06-20T22:10:33.251Z,3.42
2018-06-20T22:15:36.476Z,3.72
2018-06-20T22:20:39.811Z,3.58
2018-06-20T22:25:42.919Z,3.40
2018-06-20T22:30:46.386Z,3.37
2018-06-20T22:35:49.881Z,3.33
2018-06-20T22:40:52.941Z,3.37
2018-06-20T22:45:56.223Z,3.33
2018-06-20T22:50:59.362Z,3.83
2018-06-20T22:56:02.640Z,3.95
2018-06-20T23:01:05.728Z,3.17
2018-06-20T23:06:08.763Z,3.50
2018-06-20T23:11:11.827Z,3.58
2018-06-20T23:16:15.396Z,3.25
2018-06-20T23:21:18.588Z,3.30
2018-06-20T23:26:22.006Z,3.65
2018-06-20T23:31:25.209Z,3.35
2018-06-20T23:36:28.175Z,3.65
2018-06-20T23:41:31.166Z,3.80
2018-06-20T23:46:34.323Z,3.62
2018-06-20T23:51:37.675Z,3.15
2018-06-20T23:56:40.809Z,3.22
